Time;durP1;ratioP1;P1;durP2;ratioP2;P2;SDS_P1;SDS_P2;PMS_P1;PMS_P2;Temp;Humidity;BMP_temperature;BMP_pressure;BME280_temperature;BME280_humidity;BME280_pressure;Samples;Min_cycle;Max_cycle;Signal;HPM_P1;HPM_P2
2023/11/03 00:01:30;;;;;;;17.48;3.20;;;8.60;99.90;;;;;;5014880;28;20096;-56
2023/11/03 00:03:57;;;;;;;16.30;2.42;;;8.60;99.90;;;;;;5014673;28;20060;-58
2023/11/03 00:06:24;;;;;;;16.90;2.67;;;8.60;99.90;;;;;;5014370;28;20046;-58
2023/11/03 00:08:50;;;;;;;18.63;2.75;;;8.60;99.90;;;;;;5014694;28;20395;-56
2023/11/03 00:11:17;;;;;;;15.50;2.90;;;8.60;99.90;;;;;;5014591;28;20046;-64
2023/11/03 00:13:44;;;;;;;15.00;2.90;;;8.60;99.90;;;;;;5014214;28;20038;-58
2023/11/03 00:16:11;;;;;;;15.60;3.83;;;8.60;99.90;;;;;;5014528;28;20048;-59
2023/11/03 00:18:38;;;;;;;19.02;2.90;;;8.60;99.90;;;;;;5014477;28;20053;-64
2023/11/03 00:21:05;;;;;;;15.38;3.72;;;8.60;99.90;;;;;;5014011;28;20038;-63
2023/11/03 00:23:31;;;;;;;18.42;3.00;;;8.60;99.90;;;;;;5014071;28;20493;-56
2023/11/03 00:25:58;;;;;;;13.82;3.03;;;8.60;99.90;;;;;;5014009;28;20545;-58
2023/11/03 00:28:25;;;;;;;18.92;3.05;;;8.60;99.90;;;;;;5013772;28;20061;-58
2023/11/03 00:30:52;;;;;;;13.00;3.15;;;8.60;99.90;;;;;;4996304;28;20048;-64
2023/11/03 00:33:20;;;;;;;16.73;2.97;;;8.60;99.90;;;;;;5013848;28;20034;-63
2023/11/03 00:35:47;;;;;;;13.68;3.22;;;8.70;99.90;;;;;;4996689;28;20038;-64
2023/11/03 00:38:15;;;;;;;16.23;2.80;;;8.70;99.90;;;;;;5013420;28;20050;-64
2023/11/03 00:40:42;;;;;;;17.52;3.58;;;8.70;99.90;;;;;;5014268;28;20049;-63
2023/11/03 00:43:09;;;;;;;15.73;3.28;;;8.70;99.90;;;;;;5013976;28;20483;-63
2023/11/03 00:45:36;;;;;;;15.40;3.08;;;8.60;99.90;;;;;;5014268;28;20041;-63
2023/11/03 00:48:03;;;;;;;16.27;3.15;;;8.60;99.90;;;;;;4996515;28;20383;-64
2023/11/03 00:50:30;;;;;;;17.60;3.42;;;8.60;99.90;;;;;;5014133;28;20046;-64
2023/11/03 00:52:57;;;;;;;21.98;3.15;;;8.60;99.90;;;;;;4996071;28;20495;-64
2023/11/03 00:55:25;;;;;;;19.20;3.00;;;8.60;99.90;;;;;;5013789;28;20037;-64
2023/11/03 00:57:52;;;;;;;15.30;3.08;;;8.60;99.90;;;;;;5013825;28;20041;-55
2023/11/03 01:00:18;;;;;;;15.30;3.08;;;8.60;99.90;;;;;;5013896;28;20038;-59
2023/11/03 01:02:45;;;;;;;16.40;2.35;;;8.60;99.90;;;;;;5013893;28;20050;-58
2023/11/03 01:05:14;;;;;;;11.85;2.33;;;8.60;99.90;;;;;;5013668;28;20129;-64
2023/11/03 01:07:42;;;;;;;18.15;3.17;;;8.60;99.90;;;;;;5013517;28;20104;-64
2023/11/03 01:10:09;;;;;;;17.52;2.80;;;8.60;99.90;;;;;;5013897;28;20076;-64
2023/11/03 01:12:36;;;;;;;16.95;3.00;;;8.50;99.90;;;;;;4995618;28;20100;-63
2023/11/03 01:15:05;;;;;;;16.30;3.05;;;8.50;99.90;;;;;;4996116;28;20088;-64
2023/11/03 01:17:32;;;;;;;16.63;3.20;;;8.50;99.90;;;;;;4996300;28;20037;-64
2023/11/03 01:19:59;;;;;;;17.63;3.00;;;8.50;99.90;;;;;;5013508;28;20502;-64
2023/11/03 01:22:26;;;;;;;19.10;2.47;;;8.50;99.90;;;;;;5013419;28;20069;-64
2023/11/03 01:24:53;;;;;;;14.45;2.65;;;8.50;99.90;;;;;;5013625;28;20054;-64
2023/11/03 01:27:20;;;;;;;20.05;3.08;;;8.50;99.90;;;;;;5013155;28;20045;-64
2023/11/03 01:29:49;;;;;;;17.80;3.47;;;8.50;99.90;;;;;;5013401;28;20045;-64
2023/11/03 01:32:16;;;;;;;18.23;3.40;;;8.40;99.90;;;;;;5013179;28;20120;-64
2023/11/03 01:34:42;;;;;;;15.45;4.20;;;8.40;99.90;;;;;;5013149;28;20129;-64
2023/11/03 01:37:09;;;;;;;16.33;2.70;;;8.40;99.90;;;;;;4995530;28;20042;-64
2023/11/03 01:39:36;;;;;;;14.68;2.65;;;8.50;99.90;;;;;;4995104;28;20050;-57
2023/11/03 01:42:04;;;;;;;15.48;2.75;;;8.50;99.90;;;;;;5013214;28;20128;-64
2023/11/03 01:44:33;;;;;;;14.50;3.67;;;8.50;99.90;;;;;;5013450;28;20406;-64
2023/11/03 01:47:00;;;;;;;16.95;3.22;;;8.50;99.90;;;;;;5013345;28;20046;-64
2023/11/03 01:49:27;;;;;;;22.45;2.63;;;8.50;99.90;;;;;;4995919;28;20038;-57
2023/11/03 01:51:54;;;;;;;18.52;3.80;;;8.50;99.90;;;;;;5013729;28;20081;-56
2023/11/03 01:54:22;;;;;;;18.27;3.03;;;8.50;99.90;;;;;;4995593;28;20042;-58
2023/11/03 01:56:49;;;;;;;15.52;2.72;;;8.40;99.90;;;;;;5014881;28;20466;-57
2023/11/03 01:59:16;;;;;;;18.58;2.78;;;8.40;99.90;;;;;;5016969;28;20065;-57
2023/11/03 02:01:45;;;;;;;17.55;2.80;;;8.40;99.90;;;;;;4999392;28;20565;-56
2023/11/03 02:04:11;;;;;;;13.98;2.92;;;8.40;99.90;;;;;;5016848;28;20073;-64
2023/11/03 02:06:38;;;;;;;17.38;2.75;;;8.40;99.90;;;;;;4998757;28;20049;-64
2023/11/03 02:09:05;;;;;;;16.17;3.70;;;8.50;99.90;;;;;;5017025;28;20041;-64
2023/11/03 02:11:32;;;;;;;19.88;4.40;;;8.50;99.90;;;;;;5016843;28;20041;-64
2023/11/03 02:13:59;;;;;;;12.88;2.53;;;8.50;99.90;;;;;;4998822;28;20042;-64
2023/11/03 02:16:27;;;;;;;16.58;2.70;;;8.50;99.90;;;;;;5016584;28;20030;-64
2023/11/03 02:18:54;;;;;;;15.57;2.88;;;8.50;99.90;;;;;;5016426;28;20038;-64
2023/11/03 02:21:21;;;;;;;19.80;3.60;;;8.50;99.90;;;;;;5016370;28;20042;-64
2023/11/03 02:23:48;;;;;;;15.70;2.90;;;8.50;99.90;;;;;;5016809;28;20046;-64
2023/11/03 02:26:15;;;;;;;16.63;3.05;;;8.60;99.90;;;;;;5031865;28;20049;-64
2023/11/03 02:28:41;;;;;;;17.30;3.42;;;8.50;99.90;;;;;;4998535;28;20041;-64
2023/11/03 02:31:08;;;;;;;16.77;3.30;;;8.50;99.90;;;;;;5016241;28;20077;-64
2023/11/03 02:33:37;;;;;;;19.20;2.78;;;8.50;99.90;;;;;;5016356;28;20066;-64
2023/11/03 02:36:04;;;;;;;14.38;2.70;;;8.50;99.90;;;;;;5016071;28;20545;-64
2023/11/03 02:38:31;;;;;;;18.77;2.45;;;8.50;99.90;;;;;;5015775;28;20056;-64
2023/11/03 02:40:58;;;;;;;15.13;2.42;;;8.50;99.90;;;;;;5016530;28;20113;-64
2023/11/03 02:43:25;;;;;;;16.50;2.70;;;8.50;99.90;;;;;;5015779;28;20094;-64
2023/11/03 02:45:51;;;;;;;16.63;3.53;;;8.50;99.90;;;;;;4998451;28;20068;-58
2023/11/03 02:48:18;;;;;;;14.38;2.65;;;8.50;99.90;;;;;;4998632;28;20081;-59
2023/11/03 02:50:45;;;;;;;17.10;3.40;;;8.50;99.90;;;;;;4998682;28;20050;-57
2023/11/03 02:53:12;;;;;;;12.52;2.63;;;8.50;99.90;;;;;;5015870;28;20069;-63
2023/11/03 02:55:39;;;;;;;11.07;2.15;;;8.50;99.90;;;;;;5016034;28;20041;-64
2023/11/03 02:58:06;;;;;;;13.18;2.30;;;8.50;99.90;;;;;;5016151;28;20042;-63
2023/11/03 03:00:33;;;;;;;21.50;3.22;;;8.50;99.90;;;;;;5016031;28;20129;-63
2023/11/03 03:02:59;;;;;;;12.40;2.22;;;8.40;99.90;;;;;;5015692;28;20042;-64
2023/11/03 03:05:26;;;;;;;15.43;2.88;;;8.40;99.90;;;;;;5015660;28;20048;-64
2023/11/03 03:07:54;;;;;;;15.23;2.58;;;8.40;99.90;;;;;;5016057;28;20045;-64
2023/11/03 03:10:21;;;;;;;11.75;2.38;;;8.40;99.90;;;;;;5015602;28;20088;-63
2023/11/03 03:12:48;;;;;;;15.90;2.70;;;8.40;99.90;;;;;;4997837;28;20110;-63
2023/11/03 03:15:15;;;;;;;14.07;2.42;;;8.40;99.90;;;;;;5015349;28;20121;-64
2023/11/03 03:17:42;;;;;;;17.15;3.17;;;8.40;99.90;;;;;;5015311;28;20052;-63
2023/11/03 03:20:09;;;;;;;13.13;2.83;;;8.40;99.90;;;;;;4998055;28;20045;-63
2023/11/03 03:22:36;;;;;;;17.00;2.65;;;8.40;99.90;;;;;;5015231;28;20034;-57
2023/11/03 03:25:02;;;;;;;16.20;2.63;;;8.30;99.90;;;;;;5015498;28;20037;-57
2023/11/03 03:27:30;;;;;;;19.02;2.35;;;8.30;99.90;;;;;;4998014;28;20042;-59
2023/11/03 03:29:57;;;;;;;16.45;2.35;;;8.30;99.90;;;;;;4997609;28;20423;-57
2023/11/03 03:32:24;;;;;;;12.95;2.67;;;8.30;99.90;;;;;;5015395;28;20045;-58
2023/11/03 03:34:51;;;;;;;15.98;2.72;;;8.30;99.90;;;;;;5015162;28;20038;-63
2023/11/03 03:37:18;;;;;;;16.80;2.40;;;8.30;99.90;;;;;;5015071;28;20444;-64
2023/11/03 03:39:45;;;;;;;14.65;2.92;;;8.30;99.90;;;;;;5014873;28;20471;-63
2023/11/03 03:42:11;;;;;;;18.52;3.33;;;8.30;99.90;;;;;;5014968;28;20048;-63
2023/11/03 03:44:39;;;;;;;18.30;3.05;;;8.30;99.90;;;;;;5014836;28;20080;-63
2023/11/03 03:47:05;;;;;;;14.25;2.20;;;8.30;99.90;;;;;;5015267;28;20072;-63
2023/11/03 03:49:32;;;;;;;17.33;2.85;;;8.30;99.90;;;;;;5015382;28;20045;-64
2023/11/03 03:51:59;;;;;;;18.02;2.85;;;8.30;99.90;;;;;;5014725;28;20050;-63
2023/11/03 03:54:26;;;;;;;13.45;2.47;;;8.20;99.90;;;;;;5014733;28;20514;-63
2023/11/03 03:56:53;;;;;;;13.32;2.58;;;8.30;99.90;;;;;;5014556;28;20049;-64
2023/11/03 03:59:19;;;;;;;16.33;2.45;;;8.20;99.90;;;;;;4996860;28;20129;-64
2023/11/03 04:01:47;;;;;;;14.50;3.63;;;8.20;99.90;;;;;;4997363;28;20132;-64
2023/11/03 04:04:13;;;;;;;17.35;3.17;;;8.30;99.90;;;;;;5015026;28;20034;-58
2023/11/03 04:06:40;;;;;;;14.00;2.53;;;8.30;99.90;;;;;;5014392;28;20044;-59
2023/11/03 04:09:07;;;;;;;16.20;2.92;;;8.30;99.90;;;;;;5014349;28;20054;-59
2023/11/03 04:11:34;;;;;;;12.93;2.25;;;8.30;99.90;;;;;;5014364;28;20069;-59
2023/11/03 04:14:01;;;;;;;18.95;2.78;;;8.20;99.90;;;;;;5014324;28;20128;-58
2023/11/03 04:16:27;;;;;;;15.63;2.35;;;8.30;99.90;;;;;;4997118;28;20092;-57
2023/11/03 04:18:56;;;;;;;13.77;2.15;;;8.20;99.90;;;;;;5013983;28;20038;-58
2023/11/03 04:21:23;;;;;;;11.38;2.45;;;8.20;99.90;;;;;;5013990;28;20088;-58
2023/11/03 04:23:50;;;;;;;15.30;2.45;;;8.20;99.90;;;;;;5014157;28;20125;-63
2023/11/03 04:26:17;;;;;;;15.90;2.28;;;8.20;99.90;;;;;;5014458;28;20487;-63
2023/11/03 04:28:43;;;;;;;20.02;3.13;;;8.20;99.90;;;;;;5013848;28;20112;-63
2023/11/03 04:31:10;;;;;;;15.05;2.60;;;8.20;99.90;;;;;;5013822;28;20041;-63
2023/11/03 04:33:37;;;;;;;11.40;2.30;;;8.20;99.90;;;;;;5013929;28;20054;-63
2023/11/03 04:36:04;;;;;;;17.65;3.35;;;8.20;99.90;;;;;;5014373;28;20038;-65
2023/11/03 04:38:31;;;;;;;17.17;2.65;;;8.20;99.90;;;;;;5013520;28;20138;-63
2023/11/03 04:40:58;;;;;;;15.27;2.17;;;8.20;99.90;;;;;;5014182;28;20038;-64
2023/11/03 04:43:25;;;;;;;19.27;2.58;;;8.10;99.90;;;;;;5014315;28;20083;-64
2023/11/03 04:45:51;;;;;;;15.50;2.67;;;8.20;99.90;;;;;;5013659;28;20399;-63
2023/11/03 04:48:19;;;;;;;11.07;2.22;;;8.10;99.90;;;;;;5013523;28;20060;-63
2023/11/03 04:50:46;;;;;;;13.20;1.90;;;8.10;99.90;;;;;;5013808;28;20140;-64
2023/11/03 04:53:13;;;;;;;12.50;2.65;;;8.10;99.90;;;;;;5013575;28;20462;-63
2023/11/03 04:55:40;;;;;;;13.40;2.35;;;8.10;99.90;;;;;;5013636;28;20113;-63
2023/11/03 04:58:07;;;;;;;18.95;2.72;;;8.10;99.90;;;;;;5013319;28;20046;-63
2023/11/03 05:00:34;;;;;;;13.85;2.22;;;8.00;99.90;;;;;;5013700;28;20111;-64
2023/11/03 05:03:01;;;;;;;13.95;2.28;;;8.00;99.90;;;;;;5013452;28;20356;-64
2023/11/03 05:05:32;;;;;;;11.38;2.20;;;8.00;99.90;;;;;;5013532;28;20463;-63
2023/11/03 05:07:59;;;;;;;17.20;2.58;;;8.10;99.90;;;;;;5013772;28;20479;-63
2023/11/03 05:10:25;;;;;;;17.75;2.30;;;8.00;99.90;;;;;;5013546;28;20049;-63
2023/11/03 05:12:52;;;;;;;14.73;2.13;;;8.00;99.90;;;;;;4996449;28;20137;-63
2023/11/03 05:15:19;;;;;;;12.48;2.40;;;8.00;99.90;;;;;;5013473;28;20041;-63
2023/11/03 05:17:47;;;;;;;16.70;2.40;;;8.00;99.90;;;;;;5013326;28;20041;-63
2023/11/03 05:20:13;;;;;;;10.73;1.90;;;8.00;99.90;;;;;;4996204;28;20061;-63
2023/11/03 05:22:40;;;;;;;8.65;1.90;;;8.00;99.90;;;;;;5013394;28;20392;-63
2023/11/03 05:25:07;;;;;;;11.73;3.65;;;7.90;99.90;;;;;;5013534;28;20038;-63
2023/11/03 05:27:34;;;;;;;9.88;2.05;;;7.90;99.90;;;;;;5013801;28;20522;-63
2023/11/03 05:30:01;;;;;;;11.93;2.00;;;7.90;99.90;;;;;;5013649;28;20388;-63
2023/11/03 05:32:27;;;;;;;10.27;2.05;;;7.90;99.90;;;;;;5016589;28;20041;-63
2023/11/03 05:34:54;;;;;;;13.18;2.20;;;7.90;99.90;;;;;;5017513;28;20423;-64
2023/11/03 05:37:21;;;;;;;11.18;2.38;;;7.80;99.90;;;;;;5017015;28;20513;-63
2023/11/03 05:39:48;;;;;;;12.68;2.00;;;7.80;99.90;;;;;;4979616;28;20058;-63
2023/11/03 05:42:15;;;;;;;13.50;2.70;;;7.80;99.90;;;;;;4978523;28;20129;-64
2023/11/03 05:44:41;;;;;;;14.48;2.10;;;7.80;99.90;;;;;;4978220;28;20057;-63
2023/11/03 05:47:08;;;;;;;14.70;2.25;;;7.80;99.90;;;;;;4977947;28;20051;-58
2023/11/03 05:49:35;;;;;;;15.32;2.67;;;7.80;99.90;;;;;;4977935;28;20051;-58
2023/11/03 05:52:02;;;;;;;17.40;3.08;;;7.80;99.90;;;;;;4978164;28;20492;-64
2023/11/03 05:54:29;;;;;;;10.40;1.55;;;7.80;99.90;;;;;;4977901;28;20047;-64
2023/11/03 05:56:56;;;;;;;15.07;2.30;;;7.80;99.90;;;;;;4977882;28;20125;-64
2023/11/03 05:59:23;;;;;;;13.90;2.38;;;7.80;99.90;;;;;;4978078;28;20049;-64
2023/11/03 06:01:51;;;;;;;15.23;3.20;;;7.80;99.90;;;;;;4977960;28;20043;-63
2023/11/03 06:04:17;;;;;;;17.02;2.10;;;7.80;99.90;;;;;;4977991;28;20047;-63
2023/11/03 06:06:44;;;;;;;15.60;1.90;;;7.80;99.90;;;;;;4978342;28;20047;-64
2023/11/03 06:09:11;;;;;;;10.07;1.63;;;7.80;99.90;;;;;;4960509;28;20133;-64
2023/11/03 06:11:39;;;;;;;7.25;1.75;;;7.70;99.90;;;;;;4977559;28;20081;-64
2023/11/03 06:14:06;;;;;;;16.88;2.47;;;7.70;99.90;;;;;;4977759;28;20432;-63
2023/11/03 06:16:34;;;;;;;9.02;1.55;;;7.70;99.90;;;;;;4978061;28;20400;-64
2023/11/03 06:19:01;;;;;;;8.38;1.67;;;7.70;99.90;;;;;;4977798;28;20154;-64
2023/11/03 06:21:28;;;;;;;9.20;1.70;;;7.60;99.90;;;;;;4978122;28;20396;-64
2023/11/03 06:23:55;;;;;;;9.35;1.48;;;7.70;99.90;;;;;;4976273;28;20057;-58
2023/11/03 06:26:22;;;;;;;11.73;2.35;;;7.70;99.90;;;;;;4977602;28;20407;-59
2023/11/03 06:28:49;;;;;;;7.60;1.50;;;7.70;99.90;;;;;;4977596;28;20152;-57
2023/11/03 06:31:16;;;;;;;11.40;1.63;;;7.70;99.90;;;;;;4977857;28;20046;-60
2023/11/03 06:33:45;;;;;;;11.55;1.75;;;7.60;99.90;;;;;;4977815;28;20051;-57
2023/11/03 06:36:12;;;;;;;9.00;1.58;;;7.60;99.90;;;;;;4976384;28;20380;-64
2023/11/03 06:38:38;;;;;;;11.57;2.22;;;7.60;99.90;;;;;;4991627;28;20065;-64
2023/11/03 06:41:05;;;;;;;7.63;1.60;;;7.60;99.90;;;;;;5016306;28;20036;-63
2023/11/03 06:43:32;;;;;;;15.75;3.10;;;7.60;99.90;;;;;;5015778;28;20432;-64
2023/11/03 06:45:59;;;;;;;11.13;2.08;;;7.60;99.90;;;;;;5016616;28;20136;-64
2023/11/03 06:48:26;;;;;;;11.45;1.58;;;7.60;99.90;;;;;;5016371;28;20125;-64
2023/11/03 06:50:52;;;;;;;12.93;2.47;;;7.60;99.90;;;;;;5016763;28;20052;-64
2023/11/03 06:53:19;;;;;;;12.38;2.15;;;7.60;99.90;;;;;;4998689;28;20479;-64
2023/11/03 06:55:47;;;;;;;11.95;2.38;;;7.60;99.90;;;;;;4998439;28;20033;-64
2023/11/03 06:58:14;;;;;;;11.93;1.63;;;7.60;99.90;;;;;;5015777;28;20042;-63
2023/11/03 07:00:42;;;;;;;9.35;1.45;;;7.60;99.90;;;;;;5015771;28;20092;-63
2023/11/03 07:03:10;;;;;;;12.13;1.75;;;7.60;99.90;;;;;;5015816;28;20546;-59
2023/11/03 07:05:38;;;;;;;10.48;1.60;;;7.60;99.90;;;;;;5015615;28;20129;-58
2023/11/03 07:08:05;;;;;;;12.48;1.73;;;7.70;99.90;;;;;;5015579;28;20050;-59
2023/11/03 07:10:32;;;;;;;11.45;1.80;;;7.70;99.90;;;;;;5016084;28;20487;-59
2023/11/03 07:13:01;;;;;;;7.93;1.60;;;7.80;99.90;;;;;;5015777;28;20045;-58
2023/11/03 07:15:29;;;;;;;11.52;1.50;;;7.80;99.90;;;;;;5015553;28;20491;-59
2023/11/03 07:17:56;;;;;;;9.40;1.40;;;7.80;99.90;;;;;;5015336;28;20064;-58
2023/11/03 07:20:23;;;;;;;8.07;1.35;;;7.80;99.90;;;;;;5015008;28;20430;-58
2023/11/03 07:22:50;;;;;;;10.73;1.88;;;7.80;99.90;;;;;;5015442;28;20037;-57
2023/11/03 07:25:19;;;;;;;9.13;1.73;;;7.80;99.90;;;;;;5015224;28;20446;-58
2023/11/03 07:27:47;;;;;;;9.85;1.70;;;7.80;99.90;;;;;;5015537;28;20065;-58
2023/11/03 07:30:14;;;;;;;7.78;1.98;;;7.90;99.90;;;;;;5015253;28;20493;-58
2023/11/03 07:32:44;;;;;;;8.50;1.52;;;7.90;99.90;;;;;;5015547;28;20045;-57
2023/11/03 07:35:13;;;;;;;14.68;2.08;;;8.00;99.90;;;;;;5015359;28;20569;-58
2023/11/03 07:37:40;;;;;;;13.45;2.00;;;8.00;99.90;;;;;;5014822;28;20042;-64
2023/11/03 07:40:07;;;;;;;13.00;2.05;;;8.00;99.90;;;;;;4974945;28;20047;-63
2023/11/03 07:42:34;;;;;;;11.88;1.90;;;8.10;99.90;;;;;;4975976;28;20453;-63
2023/11/03 07:45:01;;;;;;;14.40;1.70;;;8.20;99.90;;;;;;4976093;28;20070;-58
2023/11/03 07:47:27;;;;;;;12.15;2.20;;;8.20;99.90;;;;;;4975010;28;20495;-59
2023/11/03 07:49:54;;;;;;;9.90;1.70;;;8.30;99.90;;;;;;4976062;28;20078;-58
2023/11/03 07:52:22;;;;;;;16.30;3.65;;;8.40;99.90;;;;;;4975713;28;20049;-59
2023/11/03 07:54:49;;;;;;;11.80;2.67;;;8.40;99.90;;;;;;4975210;28;20042;-59
2023/11/03 07:57:16;;;;;;;10.75;1.88;;;8.50;99.90;;;;;;4975392;28;20042;-58
2023/11/03 07:59:43;;;;;;;10.43;2.05;;;8.50;99.90;;;;;;4974571;28;20073;-63
2023/11/03 08:02:10;;;;;;;7.35;1.40;;;8.60;99.90;;;;;;4975331;28;20101;-64
2023/11/03 08:04:39;;;;;;;7.63;1.42;;;8.70;99.90;;;;;;4975462;28;20464;-59
2023/11/03 08:07:07;;;;;;;11.65;1.70;;;8.70;99.90;;;;;;4975623;28;20488;-58
2023/11/03 08:09:35;;;;;;;11.00;1.48;;;8.80;99.90;;;;;;4975876;28;20113;-58
2023/11/03 08:12:02;;;;;;;10.05;2.30;;;8.90;99.90;;;;;;4974553;28;20061;-58
2023/11/03 08:14:29;;;;;;;10.40;1.58;;;8.90;99.90;;;;;;4975800;28;20071;-58
2023/11/03 08:16:56;;;;;;;9.43;1.90;;;9.00;99.90;;;;;;4974071;28;20324;-58
2023/11/03 08:19:23;;;;;;;8.63;1.85;;;9.10;99.90;;;;;;4975269;28;20051;-57
2023/11/03 08:21:49;;;;;;;10.73;1.67;;;9.20;99.90;;;;;;4975661;28;20074;-58
2023/11/03 08:24:16;;;;;;;10.82;1.70;;;9.30;99.90;;;;;;4975773;28;20105;-58
2023/11/03 08:26:43;;;;;;;9.35;2.05;;;9.30;99.90;;;;;;4975771;28;20054;-58
2023/11/03 08:29:10;;;;;;;8.63;1.60;;;9.40;99.90;;;;;;4974958;28;20137;-58
2023/11/03 08:31:40;;;;;;;9.00;1.98;;;9.50;99.90;;;;;;4975375;28;20089;-59
2023/11/03 08:34:11;;;;;;;11.00;1.92;;;9.50;99.90;;;;;;4975296;28;20039;-64
2023/11/03 08:36:38;;;;;;;8.07;1.55;;;9.50;99.90;;;;;;4975559;28;20042;-57
2023/11/03 08:39:06;;;;;;;12.20;1.85;;;9.60;99.90;;;;;;4973521;28;20051;-56
2023/11/03 08:41:53;;;;;;;11.30;2.17;;;9.60;99.90;;;;;;4973801;28;20047;-59
2023/11/03 08:44:21;;;;;;;7.00;1.30;;;9.60;99.90;;;;;;4974780;28;20053;-58
2023/11/03 08:46:48;;;;;;;8.13;1.42;;;9.60;99.90;;;;;;4973622;28;20114;-58
2023/11/03 08:49:15;;;;;;;5.97;1.45;;;9.70;99.90;;;;;;4974488;28;20047;-57
2023/11/03 08:51:41;;;;;;;8.10;1.90;;;9.70;99.90;;;;;;4974982;28;20485;-58
2023/11/03 08:54:10;;;;;;;9.07;1.75;;;9.70;99.90;;;;;;4975227;28;20051;-57
2023/11/03 08:56:39;;;;;;;6.72;1.70;;;9.70;99.90;;;;;;4974896;28;20058;-62
2023/11/03 08:59:06;;;;;;;6.60;1.30;;;9.80;99.90;;;;;;4974329;28;20511;-63
2023/11/03 09:01:33;;;;;;;7.75;1.40;;;9.80;99.90;;;;;;4974692;28;20592;-63
2023/11/03 09:04:01;;;;;;;7.78;1.70;;;9.90;99.90;;;;;;4975123;28;20361;-58
2023/11/03 09:06:29;;;;;;;8.45;1.75;;;9.90;99.90;;;;;;4973026;28;20043;-58
2023/11/03 09:08:56;;;;;;;10.35;1.58;;;10.00;99.90;;;;;;4974629;28;20047;-62
2023/11/03 09:11:23;;;;;;;8.25;1.42;;;10.00;99.90;;;;;;4974310;28;20066;-63
2023/11/03 09:13:50;;;;;;;8.23;1.83;;;10.10;99.90;;;;;;4974654;28;20125;-62
2023/11/03 09:16:17;;;;;;;6.97;1.15;;;10.10;99.90;;;;;;4974283;28;20053;-63
2023/11/03 09:18:44;;;;;;;8.15;1.67;;;10.10;99.90;;;;;;4974322;28;20559;-62
2023/11/03 09:21:11;;;;;;;7.47;1.23;;;10.20;99.90;;;;;;4974221;28;20062;-62
2023/11/03 09:23:38;;;;;;;8.82;1.33;;;10.30;99.90;;;;;;4974261;28;20425;-63
2023/11/03 09:26:05;;;;;;;5.35;1.13;;;10.30;99.90;;;;;;4974689;28;20085;-62
2023/11/03 09:28:31;;;;;;;9.82;1.52;;;10.40;99.90;;;;;;4974318;28;20487;-62
2023/11/03 09:30:59;;;;;;;6.07;1.30;;;10.50;99.90;;;;;;4974372;28;20038;-63
2023/11/03 09:33:26;;;;;;;7.75;1.50;;;10.50;99.90;;;;;;4957108;28;20042;-62
2023/11/03 09:35:53;;;;;;;5.72;1.20;;;10.70;99.90;;;;;;4975015;28;20122;-63
2023/11/03 09:38:20;;;;;;;6.60;1.20;;;10.70;99.90;;;;;;4972938;28;20055;-62
2023/11/03 09:40:47;;;;;;;7.93;1.42;;;10.70;99.90;;;;;;4974091;28;20067;-62
2023/11/03 09:43:14;;;;;;;8.60;1.67;;;10.80;99.90;;;;;;4974785;28;20134;-58
2023/11/03 09:45:40;;;;;;;7.80;1.50;;;10.90;99.90;;;;;;4974593;28;20039;-57
2023/11/03 09:48:12;;;;;;;4.72;1.13;;;10.90;99.90;;;;;;4972612;28;20067;-57
2023/11/03 09:50:39;;;;;;;9.20;1.63;;;11.00;99.90;;;;;;4974475;28;20373;-57
2023/11/03 09:53:06;;;;;;;9.70;1.30;;;11.00;99.90;;;;;;4974199;28;20093;-57
2023/11/03 09:55:34;;;;;;;9.18;1.40;;;11.10;99.90;;;;;;4974418;28;20395;-56
2023/11/03 09:58:05;;;;;;;6.82;1.67;;;11.10;99.90;;;;;;4972779;28;20050;-56
2023/11/03 10:00:32;;;;;;;8.10;1.30;;;11.20;99.90;;;;;;4974607;28;20054;-63
2023/11/03 10:02:59;;;;;;;4.80;1.55;;;11.20;99.90;;;;;;4973786;28;20035;-54
2023/11/03 10:05:29;;;;;;;8.65;1.55;;;11.20;99.90;;;;;;4974045;28;20047;-58
2023/11/03 10:07:56;;;;;;;7.88;1.52;;;11.20;99.90;;;;;;4974049;28;20043;-57
2023/11/03 10:10:23;;;;;;;8.77;1.75;;;11.20;99.90;;;;;;4974433;28;20043;-57
2023/11/03 10:12:50;;;;;;;8.80;1.60;;;11.30;99.90;;;;;;4973855;28;20047;-57
2023/11/03 10:15:18;;;;;;;7.43;1.50;;;11.30;99.90;;;;;;4973855;28;20452;-57
2023/11/03 10:17:45;;;;;;;7.30;1.50;;;11.40;99.90;;;;;;4975394;28;20065;-62
2023/11/03 10:20:12;;;;;;;5.97;1.20;;;11.40;99.90;;;;;;4977611;28;20477;-56
2023/11/03 10:22:42;;;;;;;6.47;1.45;;;11.40;99.90;;;;;;4977979;28;20476;-58
2023/11/03 10:25:09;;;;;;;5.95;1.25;;;11.50;99.90;;;;;;4977524;28;20046;-56
2023/11/03 10:27:36;;;;;;;6.25;1.42;;;11.60;99.90;;;;;;4977649;28;20049;-59
2023/11/03 10:30:05;;;;;;;7.22;1.48;;;11.70;99.90;;;;;;4977794;28;20045;-63
2023/11/03 10:32:32;;;;;;;8.73;1.58;;;11.80;99.90;;;;;;4977518;28;20460;-63
2023/11/03 10:34:59;;;;;;;8.68;1.70;;;11.80;99.90;;;;;;4977178;28;20535;-59
2023/11/03 10:37:27;;;;;;;5.72;1.73;;;11.90;99.90;;;;;;4976064;28;20067;-58
2023/11/03 10:39:54;;;;;;;8.43;1.90;;;11.90;99.90;;;;;;5012785;28;20061;-57
2023/11/03 10:42:23;;;;;;;9.07;2.55;;;12.00;99.90;;;;;;5016031;28;20400;-59
2023/11/03 10:44:50;;;;;;;8.30;2.10;;;12.10;99.90;;;;;;5016165;28;20121;-58
2023/11/03 10:47:17;;;;;;;5.78;1.40;;;12.10;99.90;;;;;;5016235;28;20137;-57
2023/11/03 10:49:46;;;;;;;7.05;1.60;;;12.20;99.90;;;;;;5015852;28;20053;-57
2023/11/03 10:52:13;;;;;;;5.00;1.45;;;12.30;99.90;;;;;;5016267;28;20046;-56
2023/11/03 10:54:41;;;;;;;8.48;1.60;;;12.30;99.90;;;;;;5016089;28;20182;-59
2023/11/03 10:57:08;;;;;;;8.88;1.58;;;12.40;99.90;;;;;;5015803;28;20129;-58
2023/11/03 10:59:43;;;;;;;8.03;1.60;;;12.40;99.90;;;;;;5015923;28;20080;-64
2023/11/03 11:02:10;;;;;;;7.80;1.52;;;12.50;99.90;;;;;;5016388;28;20286;-62
2023/11/03 11:04:38;;;;;;;6.25;1.40;;;12.50;99.90;;;;;;5015936;28;20446;-56
2023/11/03 11:07:05;;;;;;;7.47;1.30;;;12.50;99.90;;;;;;4998172;28;20052;-59
2023/11/03 11:09:34;;;;;;;7.05;1.38;;;12.40;99.90;;;;;;5015621;28;20459;-59
2023/11/03 11:12:02;;;;;;;7.13;1.52;;;12.40;99.90;;;;;;4998080;28;20049;-58
2023/11/03 11:14:33;;;;;;;10.30;1.40;;;12.50;99.90;;;;;;5015477;28;20104;-59
2023/11/03 11:17:04;;;;;;;6.65;1.30;;;12.60;99.90;;;;;;5015678;28;20120;-59
2023/11/03 11:19:30;;;;;;;7.38;1.30;;;12.60;99.90;;;;;;5015957;28;20444;-59
2023/11/03 11:21:57;;;;;;;7.75;1.50;;;12.70;99.90;;;;;;5015765;28;20049;-60
2023/11/03 11:24:24;;;;;;;6.78;1.48;;;12.70;99.90;;;;;;5015521;28;20471;-59
2023/11/03 11:26:51;;;;;;;5.25;1.40;;;12.70;99.90;;;;;;5015308;28;20121;-64
2023/11/03 11:29:18;;;;;;;8.27;1.30;;;12.80;99.90;;;;;;5015350;28;20049;-64
2023/11/03 11:31:46;;;;;;;5.30;1.30;;;12.90;99.90;;;;;;5015732;28;20467;-64
2023/11/03 11:34:13;;;;;;;7.93;1.40;;;12.90;99.90;;;;;;5015067;28;20129;-64
2023/11/03 11:36:41;;;;;;;7.53;1.40;;;12.80;99.90;;;;;;5015388;28;20042;-63
2023/11/03 11:39:12;;;;;;;7.55;1.83;;;12.80;99.90;;;;;;5014873;28;20050;-63
2023/11/03 11:41:40;;;;;;;9.77;1.63;;;12.80;99.90;;;;;;5015559;28;20073;-64
2023/11/03 11:44:09;;;;;;;6.75;1.60;;;12.80;99.90;;;;;;5015497;28;20064;-58
2023/11/03 11:46:36;;;;;;;7.05;1.60;;;12.80;99.90;;;;;;5015443;28;20435;-58
2023/11/03 11:49:03;;;;;;;8.43;1.55;;;12.80;99.90;;;;;;5015305;28;20069;-59
2023/11/03 11:51:33;;;;;;;7.32;1.45;;;12.70;99.90;;;;;;5015374;28;20116;-58
2023/11/03 11:54:01;;;;;;;8.52;1.33;;;12.70;99.90;;;;;;5015021;28;20046;-59
2023/11/03 11:56:28;;;;;;;7.00;1.30;;;12.70;99.90;;;;;;5015061;28;20038;-59
2023/11/03 11:58:55;;;;;;;7.35;1.60;;;12.70;99.90;;;;;;5015140;28;20045;-58
2023/11/03 12:01:27;;;;;;;4.93;1.42;;;12.80;99.90;;;;;;5015054;28;20100;-56
2023/11/03 12:03:55;;;;;;;8.75;1.58;;;12.80;99.90;;;;;;5014919;28;20046;-58
2023/11/03 12:06:22;;;;;;;6.50;1.48;;;12.90;99.90;;;;;;5014961;28;20148;-57
2023/11/03 12:08:49;;;;;;;9.07;1.73;;;12.90;99.90;;;;;;5014580;28;20046;-55
2023/11/03 12:11:16;;;;;;;7.15;1.40;;;13.00;99.90;;;;;;5014949;28;20053;-58
2023/11/03 12:13:47;;;;;;;7.18;1.50;;;13.10;99.90;;;;;;5014540;28;20042;-58
2023/11/03 12:16:14;;;;;;;10.07;1.83;;;13.20;99.90;;;;;;5014711;28;20041;-58
2023/11/03 12:18:41;;;;;;;8.93;1.33;;;13.30;99.90;;;;;;5014157;28;20070;-57
2023/11/03 12:21:08;;;;;;;6.55;1.55;;;13.30;99.90;;;;;;5014592;28;20121;-58
2023/11/03 12:23:35;;;;;;;7.78;1.42;;;13.30;99.90;;;;;;5014609;28;20038;-58
2023/11/03 12:26:03;;;;;;;12.95;1.83;;;13.40;99.90;;;;;;5014764;28;20042;-64
2023/11/03 12:28:30;;;;;;;11.77;2.22;;;13.40;99.90;;;;;;5014613;28;20050;-63
2023/11/03 12:30:57;;;;;;;9.80;2.03;;;13.40;99.90;;;;;;5014745;28;20503;-63
2023/11/03 12:33:25;;;;;;;7.97;1.40;;;13.50;99.90;;;;;;5014616;28;20042;-64
2023/11/03 12:35:54;;;;;;;7.07;1.25;;;13.50;99.90;;;;;;5013864;28;20509;-58
2023/11/03 12:38:21;;;;;;;5.32;1.40;;;13.50;99.90;;;;;;5014201;28;20041;-58
2023/11/03 12:40:48;;;;;;;7.43;1.80;;;13.40;99.90;;;;;;5013886;28;20041;-57
2023/11/03 12:43:14;;;;;;;5.43;1.40;;;13.20;99.90;;;;;;5014208;28;20042;-56
2023/11/03 12:45:41;;;;;;;7.05;1.42;;;13.20;99.90;;;;;;5014051;28;20068;-59
2023/11/03 12:48:09;;;;;;;7.65;1.27;;;13.10;99.90;;;;;;5014069;28;20128;-57